sensor_id;sensor_type;location;lat;lon;timestamp;P1;P2;P0
45788;PMS7003;31492;54.856;26.318;2023-04-03T00:00:53;0.8;0.3;0
45788;PMS7003;31492;54.856;26.318;2023-04-03T00:05:53;0.3;0;0
45788;PMS7003;31492;54.856;26.318;2023-04-03T00:10:53;0.6;0.2;0
45788;PMS7003;31492;54.856;26.318;2023-04-03T00:16:21;0.5;0.4;0.2
45788;PMS7003;31492;54.856;26.318;2023-04-03T00:21:08;0.9;0.5;0.3
45788;PMS7003;31492;54.856;26.318;2023-04-03T00:26:15;0.5;0.5;0.1
45788;PMS7003;31492;54.856;26.318;2023-04-03T00:30:53;0.8;0.6;0.2
45788;PMS7003;31492;54.856;26.318;2023-04-03T00:36:07;0.6;0.4;0.1
45788;PMS7003;31492;54.856;26.318;2023-04-03T00:41:07;1.2;0.5;0.2
45788;PMS7003;31492;54.856;26.318;2023-04-03T00:45:54;0.8;0.2;0.1
45788;PMS7003;31492;54.856;26.318;2023-04-03T00:50:53;1.3;0.6;0.4
45788;PMS7003;31492;54.856;26.318;2023-04-03T00:56:24;0.5;0.4;0.2
45788;PMS7003;31492;54.856;26.318;2023-04-03T01:01:08;1;0.6;0.3
45788;PMS7003;31492;54.856;26.318;2023-04-03T01:05:53;0.7;0.4;0.1
45788;PMS7003;31492;54.856;26.318;2023-04-03T01:11:15;0.7;0.5;0.2
45788;PMS7003;31492;54.856;26.318;2023-04-03T01:16:02;0.6;0.3;0.1
45788;PMS7003;31492;54.856;26.318;2023-04-03T01:21:13;0.4;0.4;0.2
45788;PMS7003;31492;54.856;26.318;2023-04-03T01:25:54;0.6;0.3;0.1
45788;PMS7003;31492;54.856;26.318;2023-04-03T01:30:56;0.7;0.3;0.1
45788;PMS7003;31492;54.856;26.318;2023-04-03T01:36:08;1.2;0.4;0.2
45788;PMS7003;31492;54.856;26.318;2023-04-03T01:40:53;0.8;0.3;0.1
45788;PMS7003;31492;54.856;26.318;2023-04-03T01:45:59;0.7;0.4;0
45788;PMS7003;31492;54.856;26.318;2023-04-03T01:50:53;0.3;0.2;0
45788;PMS7003;31492;54.856;26.318;2023-04-03T01:55:53;0.5;0.3;0.2
45788;PMS7003;31492;54.856;26.318;2023-04-03T02:00:53;0.4;0;0
45788;PMS7003;31492;54.856;26.318;2023-04-03T02:06:03;0.7;0.3;0.1
45788;PMS7003;31492;54.856;26.318;2023-04-03T02:11:07;0.4;0.2;0
45788;PMS7003;31492;54.856;26.318;2023-04-03T02:15:53;0.3;0.1;0
45788;PMS7003;31492;54.856;26.318;2023-04-03T02:21:07;1.3;0.4;0.2
45788;PMS7003;31492;54.856;26.318;2023-04-03T02:26:08;0.8;0.4;0.1
45788;PMS7003;31492;54.856;26.318;2023-04-03T02:31:37;0.4;0.2;0.1
45788;PMS7003;31492;54.856;26.318;2023-04-03T02:36:13;1;0.4;0.1
45788;PMS7003;31492;54.856;26.318;2023-04-03T02:41:08;0.4;0.4;0.2
45788;PMS7003;31492;54.856;26.318;2023-04-03T02:46:09;0.7;0.2;0
45788;PMS7003;31492;54.856;26.318;2023-04-03T02:51:13;0.5;0.2;0
45788;PMS7003;31492;54.856;26.318;2023-04-03T02:55:53;0;0;0
45788;PMS7003;31492;54.856;26.318;2023-04-03T03:01:07;0.3;0.1;0
45788;PMS7003;31492;54.856;26.318;2023-04-03T03:06:21;0.4;0.2;0
45788;PMS7003;31492;54.856;26.318;2023-04-03T03:10:53;0.3;0.3;0.1
45788;PMS7003;31492;54.856;26.318;2023-04-03T03:15:53;0.8;0.1;0
45788;PMS7003;31492;54.856;26.318;2023-04-03T03:21:02;0.7;0.4;0
45788;PMS7003;31492;54.856;26.318;2023-04-03T03:25:54;0.2;0;0
45788;PMS7003;31492;54.856;26.318;2023-04-03T03:30:53;0.5;0.1;0.1
45788;PMS7003;31492;54.856;26.318;2023-04-03T03:36:07;0.5;0.1;0.1
45788;PMS7003;31492;54.856;26.318;2023-04-03T03:40:59;0.4;0.2;0
45788;PMS7003;31492;54.856;26.318;2023-04-03T03:46:01;1;0.2;0.2
45788;PMS7003;31492;54.856;26.318;2023-04-03T03:50:53;0.4;0.2;0
45788;PMS7003;31492;54.856;26.318;2023-04-03T03:56:07;0.7;0.2;0
45788;PMS7003;31492;54.856;26.318;2023-04-03T04:01:07;0.5;0.1;0
45788;PMS7003;31492;54.856;26.318;2023-04-03T04:05:53;0.6;0.1;0
45788;PMS7003;31492;54.856;26.318;2023-04-03T04:11:35;0.3;0.2;0
45788;PMS7003;31492;54.856;26.318;2023-04-03T04:15:53;0.8;0.2;0
45788;PMS7003;31492;54.856;26.318;2023-04-03T04:21:02;0.6;0.1;0
45788;PMS7003;31492;54.856;26.318;2023-04-03T04:26:01;0.6;0;0
45788;PMS7003;31492;54.856;26.318;2023-04-03T04:31:07;0.6;0.2;0
45788;PMS7003;31492;54.856;26.318;2023-04-03T04:35:53;1;0.3;0.1
45788;PMS7003;31492;54.856;26.318;2023-04-03T04:40:59;0.3;0.3;0.2
45788;PMS7003;31492;54.856;26.318;2023-04-03T04:46:01;0.9;0.3;0
45788;PMS7003;31492;54.856;26.318;2023-04-03T04:50:53;0.8;0.2;0.1
45788;PMS7003;31492;54.856;26.318;2023-04-03T04:55:53;0.4;0;0
45788;PMS7003;31492;54.856;26.318;2023-04-03T05:01:15;0.6;0.2;0.1
45788;PMS7003;31492;54.856;26.318;2023-04-03T05:06:13;0.3;0.2;0.1
45788;PMS7003;31492;54.856;26.318;2023-04-03T05:10:59;0.2;0.2;0
45788;PMS7003;31492;54.856;26.318;2023-04-03T05:16:15;0.5;0.1;0
45788;PMS7003;31492;54.856;26.318;2023-04-03T05:21:21;0.2;0.1;0
45788;PMS7003;31492;54.856;26.318;2023-04-03T05:26:17;0.4;0.2;0
45788;PMS7003;31492;54.856;26.318;2023-04-03T05:31:07;0.7;0.1;0
45788;PMS7003;31492;54.856;26.318;2023-04-03T05:36:08;0.7;0.1;0
45788;PMS7003;31492;54.856;26.318;2023-04-03T05:41:31;0.4;0.3;0.1
45788;PMS7003;31492;54.856;26.318;2023-04-03T05:46:09;0.4;0.3;0.2
45788;PMS7003;31492;54.856;26.318;2023-04-03T05:50:53;0.5;0.3;0.1
45788;PMS7003;31492;54.856;26.318;2023-04-03T05:55:54;1.2;0.5;0.3
45788;PMS7003;31492;54.856;26.318;2023-04-03T06:01:00;1;0.5;0.3
45788;PMS7003;31492;54.856;26.318;2023-04-03T06:05:53;1;0.4;0.2
45788;PMS7003;31492;54.856;26.318;2023-04-03T06:11:21;1;0.5;0.3
45788;PMS7003;31492;54.856;26.318;2023-04-03T06:16:38;0.4;0.3;0.1
45788;PMS7003;31492;54.856;26.318;2023-04-03T06:21:28;0.9;0.3;0.1
45788;PMS7003;31492;54.856;26.318;2023-04-03T06:25:59;0.6;0.2;0
45788;PMS7003;31492;54.856;26.318;2023-04-03T06:31:07;0.2;0.1;0
45788;PMS7003;31492;54.856;26.318;2023-04-03T06:36:13;0.3;0.1;0.1
45788;PMS7003;31492;54.856;26.318;2023-04-03T06:41:05;0.6;0.1;0
45788;PMS7003;31492;54.856;26.318;2023-04-03T06:45:53;0.7;0.2;0
45788;PMS7003;31492;54.856;26.318;2023-04-03T06:51:10;0.7;0.4;0.1
45788;PMS7003;31492;54.856;26.318;2023-04-03T06:56:07;1.1;0.4;0.1
45788;PMS7003;31492;54.856;26.318;2023-04-03T07:01:08;0.5;0.3;0.1
45788;PMS7003;31492;54.856;26.318;2023-04-03T07:05:53;0.5;0.3;0
45788;PMS7003;31492;54.856;26.318;2023-04-03T07:11:13;0.9;0.1;0
45788;PMS7003;31492;54.856;26.318;2023-04-03T07:16:00;0.5;0.3;0.1
45788;PMS7003;31492;54.856;26.318;2023-04-03T07:21:21;0.6;0.2;0.1
45788;PMS7003;31492;54.856;26.318;2023-04-03T07:26:02;0.4;0.1;0
45788;PMS7003;31492;54.856;26.318;2023-04-03T07:30:58;1.1;0.3;0.1
45788;PMS7003;31492;54.856;26.318;2023-04-03T07:36:15;0.5;0.4;0.3
45788;PMS7003;31492;54.856;26.318;2023-04-03T07:41:00;0.8;0.2;0
45788;PMS7003;31492;54.856;26.318;2023-04-03T07:46:07;0.6;0.4;0.1
45788;PMS7003;31492;54.856;26.318;2023-04-03T07:51:02;0.7;0.5;0.3
45788;PMS7003;31492;54.856;26.318;2023-04-03T07:55:54;0.9;0.6;0.3
45788;PMS7003;31492;54.856;26.318;2023-04-03T08:01:06;0.9;0.8;0.5
45788;PMS7003;31492;54.856;26.318;2023-04-03T08:06:14;0.7;0.4;0.3
45788;PMS7003;31492;54.856;26.318;2023-04-03T08:10:54;0.7;0.4;0.2
45788;PMS7003;31492;54.856;26.318;2023-04-03T08:16:06;0.2;0.1;0
45788;PMS7003;31492;54.856;26.318;2023-04-03T08:20:54;0.5;0.4;0.2
45788;PMS7003;31492;54.856;26.318;2023-04-03T08:26:16;0.6;0.4;0.2
45788;PMS7003;31492;54.856;26.318;2023-04-03T08:31:02;1;0.8;0.5
45788;PMS7003;31492;54.856;26.318;2023-04-03T08:35:54;0.8;0.4;0.2
45788;PMS7003;31492;54.856;26.318;2023-04-03T08:41:01;0.8;0.5;0.4
45788;PMS7003;31492;54.856;26.318;2023-04-03T08:45:55;0.8;0.6;0.3
45788;PMS7003;31492;54.856;26.318;2023-04-03T08:51:09;1.2;0.7;0.5
45788;PMS7003;31492;54.856;26.318;2023-04-03T08:55:54;0.9;0.6;0.3
45788;PMS7003;31492;54.856;26.318;2023-04-03T09:01:00;1.1;0.7;0.4
45788;PMS7003;31492;54.856;26.318;2023-04-03T09:06:01;0.7;0.5;0.4
45788;PMS7003;31492;54.856;26.318;2023-04-03T09:10:58;0.8;0.4;0.3
45788;PMS7003;31492;54.856;26.318;2023-04-03T09:15:54;0.7;0.5;0.3
45788;PMS7003;31492;54.856;26.318;2023-04-03T09:21:03;1.1;0.9;0.6
45788;PMS7003;31492;54.856;26.318;2023-04-03T09:25:56;1.4;0.9;0.6
45788;PMS7003;31492;54.856;26.318;2023-04-03T09:30:54;0.5;0.4;0.3
45788;PMS7003;31492;54.856;26.318;2023-04-03T09:36:08;0.9;0.7;0.5
45788;PMS7003;31492;54.856;26.318;2023-04-03T09:41:17;1.5;1;0.6
45788;PMS7003;31492;54.856;26.318;2023-04-03T09:46:16;2.6;2.1;1.3
45788;PMS7003;31492;54.856;26.318;2023-04-03T09:50:55;1;0.7;0.5
45788;PMS7003;31492;54.856;26.318;2023-04-03T09:55:54;0.9;0.6;0.3
45788;PMS7003;31492;54.856;26.318;2023-04-03T10:00:54;0.7;0.6;0.4
45788;PMS7003;31492;54.856;26.318;2023-04-03T10:05:54;2.2;1.1;0.8
45788;PMS7003;31492;54.856;26.318;2023-04-03T10:11:25;0.9;0.6;0.4
45788;PMS7003;31492;54.856;26.318;2023-04-03T10:16:29;0.7;0.4;0.3
45788;PMS7003;31492;54.856;26.318;2023-04-03T10:21:15;0.8;0.6;0.2
45788;PMS7003;31492;54.856;26.318;2023-04-03T10:25:56;1.1;0.6;0.3
45788;PMS7003;31492;54.856;26.318;2023-04-03T10:31:19;0.9;0.9;0.6
45788;PMS7003;31492;54.856;26.318;2023-04-03T10:35:58;1.2;0.9;0.6
45788;PMS7003;31492;54.856;26.318;2023-04-03T10:41:07;0.9;0.6;0.5
45788;PMS7003;31492;54.856;26.318;2023-04-03T10:46:00;1.3;0.9;0.8
45788;PMS7003;31492;54.856;26.318;2023-04-03T10:51:22;1.4;1.1;0.8
45788;PMS7003;31492;54.856;26.318;2023-04-03T10:56:18;1.3;0.8;0.3
45788;PMS7003;31492;54.856;26.318;2023-04-03T11:01:32;1.1;0.7;0.6
45788;PMS7003;31492;54.856;26.318;2023-04-03T11:05:54;0.8;0.7;0.3
45788;PMS7003;31492;54.856;26.318;2023-04-03T11:10:55;1;0.4;0.2
45788;PMS7003;31492;54.856;26.318;2023-04-03T11:16:04;0.8;0.6;0.4
45788;PMS7003;31492;54.856;26.318;2023-04-03T11:20:57;1.3;0.9;0.6
45788;PMS7003;31492;54.856;26.318;2023-04-03T11:26:06;2.5;2.4;2.1
45788;PMS7003;31492;54.856;26.318;2023-04-03T11:30:55;1;0.7;0.6
45788;PMS7003;31492;54.856;26.318;2023-04-03T11:35:56;1.1;0.7;0.6
45788;PMS7003;31492;54.856;26.318;2023-04-03T11:40:54;0.9;0.9;0.6
45788;PMS7003;31492;54.856;26.318;2023-04-03T11:45:55;0.6;0.6;0.3
45788;PMS7003;31492;54.856;26.318;2023-04-03T11:50:54;1.3;0.9;0.7
45788;PMS7003;31492;54.856;26.318;2023-04-03T11:56:01;1.4;0.9;0.7
45788;PMS7003;31492;54.856;26.318;2023-04-03T12:01:51;1.4;0.9;0.6
45788;PMS7003;31492;54.856;26.318;2023-04-03T12:05:54;1;0.7;0.6
45788;PMS7003;31492;54.856;26.318;2023-04-03T12:11:28;1.1;0.7;0.5
45788;PMS7003;31492;54.856;26.318;2023-04-03T12:15:54;0.8;0.4;0.2
45788;PMS7003;31492;54.856;26.318;2023-04-03T12:20:55;0.5;0.4;0.2
45788;PMS7003;31492;54.856;26.318;2023-04-03T12:25:59;1.1;0.7;0.5
45788;PMS7003;31492;54.856;26.318;2023-04-03T12:30:54;1.4;0.7;0.4
45788;PMS7003;31492;54.856;26.318;2023-04-03T12:36:18;0.8;0.5;0.4
45788;PMS7003;31492;54.856;26.318;2023-04-03T12:40:55;0.9;0.6;0.5
45788;PMS7003;31492;54.856;26.318;2023-04-03T12:46:10;1.1;0.7;0.4
45788;PMS7003;31492;54.856;26.318;2023-04-03T12:50:54;0.6;0.3;0.2
45788;PMS7003;31492;54.856;26.318;2023-04-03T12:55:54;0.6;0.5;0.3
45788;PMS7003;31492;54.856;26.318;2023-04-03T13:01:02;1.2;0.6;0.4
45788;PMS7003;31492;54.856;26.318;2023-04-03T13:06:10;0.8;0.5;0.2
45788;PMS7003;31492;54.856;26.318;2023-04-03T13:11:08;0.9;0.5;0.2
45788;PMS7003;31492;54.856;26.318;2023-04-03T13:15:52;1.3;0.6;0.4
45788;PMS7003;31492;54.856;26.318;2023-04-03T13:21:28;0.8;0.6;0.3
45788;PMS7003;31492;54.856;26.318;2023-04-03T13:26:18;0.7;0.5;0.1
45788;PMS7003;31492;54.856;26.318;2023-04-03T13:31:18;0.5;0.4;0.2
45788;PMS7003;31492;54.856;26.318;2023-04-03T13:36:09;0.8;0.6;0.4
45788;PMS7003;31492;54.856;26.318;2023-04-03T13:41:01;1.3;0.7;0.4
45788;PMS7003;31492;54.856;26.318;2023-04-03T13:46:22;1.5;0.7;0.5
45788;PMS7003;31492;54.856;26.318;2023-04-03T13:51:17;0.8;0.5;0.4
45788;PMS7003;31492;54.856;26.318;2023-04-03T13:55:56;0.6;0.5;0.2
45788;PMS7003;31492;54.856;26.318;2023-04-03T14:00:55;0.7;0.3;0.3
45788;PMS7003;31492;54.856;26.318;2023-04-03T14:05:54;0.9;0.5;0.3
45788;PMS7003;31492;54.856;26.318;2023-04-03T14:11:09;0.8;0.6;0.4
45788;PMS7003;31492;54.856;26.318;2023-04-03T14:15:54;1;0.5;0.3
45788;PMS7003;31492;54.856;26.318;2023-04-03T14:20:54;0.4;0.3;0.1
45788;PMS7003;31492;54.856;26.318;2023-04-03T14:25:54;0.7;0.5;0.2
45788;PMS7003;31492;54.856;26.318;2023-04-03T14:31:00;2.1;1.3;1
45788;PMS7003;31492;54.856;26.318;2023-04-03T14:36:14;1.9;1.4;0.9
45788;PMS7003;31492;54.856;26.318;2023-04-03T14:41:06;1.8;1.1;0.9
45788;PMS7003;31492;54.856;26.318;2023-04-03T14:46:22;1.7;0.9;0.4
45788;PMS7003;31492;54.856;26.318;2023-04-03T14:50:54;0.9;0.6;0.4
45788;PMS7003;31492;54.856;26.318;2023-04-03T14:55:55;0.8;0.6;0.5
45788;PMS7003;31492;54.856;26.318;2023-04-03T15:01:14;0.7;0.4;0.3
45788;PMS7003;31492;54.856;26.318;2023-04-03T15:06:22;0.8;0.6;0.4
45788;PMS7003;31492;54.856;26.318;2023-04-03T15:11:08;1.4;0.7;0.5
45788;PMS7003;31492;54.856;26.318;2023-04-03T15:16:09;1.2;0.8;0.7
45788;PMS7003;31492;54.856;26.318;2023-04-03T15:20:54;1.4;0.9;0.6
45788;PMS7003;31492;54.856;26.318;2023-04-03T15:25:54;1.1;0.9;0.7
45788;PMS7003;31492;54.856;26.318;2023-04-03T15:30:54;1.1;0.9;0.5
45788;PMS7003;31492;54.856;26.318;2023-04-03T15:36:04;1.9;1.5;0.9
45788;PMS7003;31492;54.856;26.318;2023-04-03T15:40:54;2.1;1.5;0.9
45788;PMS7003;31492;54.856;26.318;2023-04-03T15:45:56;1.5;1.1;0.7
45788;PMS7003;31492;54.856;26.318;2023-04-03T15:51:04;1.1;0.9;0.5
45788;PMS7003;31492;54.856;26.318;2023-04-03T15:56:14;0.8;0.6;0.4
45788;PMS7003;31492;54.856;26.318;2023-04-03T16:01:08;1.5;1;0.6
45788;PMS7003;31492;54.856;26.318;2023-04-03T16:06:08;2.9;1.8;1.3
45788;PMS7003;31492;54.856;26.318;2023-04-03T16:11:04;2.9;2.3;1.7
45788;PMS7003;31492;54.856;26.318;2023-04-03T16:15:54;2.3;1.7;1.3
45788;PMS7003;31492;54.856;26.318;2023-04-03T16:21:08;2.1;1.6;1
45788;PMS7003;31492;54.856;26.318;2023-04-03T16:26:28;3.5;2.1;1.3
45788;PMS7003;31492;54.856;26.318;2023-04-03T16:31:36;2;0.9;0.8
45788;PMS7003;31492;54.856;26.318;2023-04-03T16:35:54;1.1;0.6;0.4
45788;PMS7003;31492;54.856;26.318;2023-04-03T16:40:54;1.2;1;0.6
45788;PMS7003;31492;54.856;26.318;2023-04-03T16:45:54;2;1.1;0.8
45788;PMS7003;31492;54.856;26.318;2023-04-03T16:50:54;2.1;1.3;1
45788;PMS7003;31492;54.856;26.318;2023-04-03T16:55:54;1.4;1.1;0.8
45788;PMS7003;31492;54.856;26.318;2023-04-03T17:01:12;1.2;1.1;0.8
45788;PMS7003;31492;54.856;26.318;2023-04-03T17:05:54;3.6;2.4;2
45788;PMS7003;31492;54.856;26.318;2023-04-03T17:11:00;3.9;3;2.1
45788;PMS7003;31492;54.856;26.318;2023-04-03T17:15:54;3.3;2.8;2.3
45788;PMS7003;31492;54.856;26.318;2023-04-03T17:21:08;3.3;2.5;2.1
45788;PMS7003;31492;54.856;26.318;2023-04-03T17:25:54;3;2;1.4
45788;PMS7003;31492;54.856;26.318;2023-04-03T17:31:24;1.6;1.2;0.8
45788;PMS7003;31492;54.856;26.318;2023-04-03T17:35:55;1.3;0.9;0.8
45788;PMS7003;31492;54.856;26.318;2023-04-03T17:41:10;2.3;1.3;0.9
45788;PMS7003;31492;54.856;26.318;2023-04-03T17:46:08;1.9;1.4;1.1
45788;PMS7003;31492;54.856;26.318;2023-04-03T17:50:54;3.3;2.3;1.7
45788;PMS7003;31492;54.856;26.318;2023-04-03T17:56:08;3.3;2.4;1.7
45788;PMS7003;31492;54.856;26.318;2023-04-03T18:00:54;3.4;2.4;1.7
45788;PMS7003;31492;54.856;26.318;2023-04-03T18:06:10;2.5;2.1;1.6
45788;PMS7003;31492;54.856;26.318;2023-04-03T18:11:23;2.8;2.1;1.8
45788;PMS7003;31492;54.856;26.318;2023-04-03T18:16:05;2.8;2.2;1.5
45788;PMS7003;31492;54.856;26.318;2023-04-03T18:20:54;3.1;2.1;1.6
45788;PMS7003;31492;54.856;26.318;2023-04-03T18:26:00;3.5;2.6;1.9
45788;PMS7003;31492;54.856;26.318;2023-04-03T18:31:00;4;2.4;1.7
45788;PMS7003;31492;54.856;26.318;2023-04-03T18:36:06;3.3;2.4;1.8
45788;PMS7003;31492;54.856;26.318;2023-04-03T18:40:54;3;2.3;1.7
45788;PMS7003;31492;54.856;26.318;2023-04-03T18:45:54;3.8;2.7;2
45788;PMS7003;31492;54.856;26.318;2023-04-03T18:51:00;5.7;4.2;2.9
45788;PMS7003;31492;54.856;26.318;2023-04-03T18:56:10;4.8;4;2.8
45788;PMS7003;31492;54.856;26.318;2023-04-03T19:01:08;4.7;3.7;2.5
45788;PMS7003;31492;54.856;26.318;2023-04-03T19:06:00;6.8;4.9;3.5
45788;PMS7003;31492;54.856;26.318;2023-04-03T19:10:54;7.1;5.9;4.5
45788;PMS7003;31492;54.856;26.318;2023-04-03T19:16:00;7.5;6.3;4.5
45788;PMS7003;31492;54.856;26.318;2023-04-03T19:21:22;7.5;5.9;4
45788;PMS7003;31492;54.856;26.318;2023-04-03T19:25:57;5.4;5;3.3
45788;PMS7003;31492;54.856;26.318;2023-04-03T19:30:54;4.7;3.4;2.2
45788;PMS7003;31492;54.856;26.318;2023-04-03T19:36:36;4;3.1;2.3
45788;PMS7003;31492;54.856;26.318;2023-04-03T19:40:54;4.7;3.4;2.3
45788;PMS7003;31492;54.856;26.318;2023-04-03T19:46:22;4.4;3.6;2.7
45788;PMS7003;31492;54.856;26.318;2023-04-03T19:50:54;5.3;4.1;3.1
45788;PMS7003;31492;54.856;26.318;2023-04-03T19:56:00;5.4;3.9;2.5
45788;PMS7003;31492;54.856;26.318;2023-04-03T20:01:44;8;6.6;5.2
45788;PMS7003;31492;54.856;26.318;2023-04-03T20:05:54;7.5;6.1;5
45788;PMS7003;31492;54.856;26.318;2023-04-03T20:11:10;4.9;4.2;2.8
45788;PMS7003;31492;54.856;26.318;2023-04-03T20:15:54;5.1;3.3;2.3
45788;PMS7003;31492;54.856;26.318;2023-04-03T20:21:06;3;2.5;1.7
45788;PMS7003;31492;54.856;26.318;2023-04-03T20:25:55;3.7;2.7;1.9
45788;PMS7003;31492;54.856;26.318;2023-04-03T20:30:54;3.4;2.3;1.8
45788;PMS7003;31492;54.856;26.318;2023-04-03T20:35:54;2.6;1.6;1.3
45788;PMS7003;31492;54.856;26.318;2023-04-03T20:41:36;1.7;1.3;1.1
45788;PMS7003;31492;54.856;26.318;2023-04-03T20:45:54;1.1;1.1;0.7
45788;PMS7003;31492;54.856;26.318;2023-04-03T20:51:08;1.9;1.3;0.8
45788;PMS7003;31492;54.856;26.318;2023-04-03T20:55:54;1.3;1.2;0.8
45788;PMS7003;31492;54.856;26.318;2023-04-03T21:01:22;1.8;1.2;0.8
45788;PMS7003;31492;54.856;26.318;2023-04-03T21:21:16;1;1;0.8
45788;PMS7003;31492;54.856;26.318;2023-04-03T21:26:24;1;0.9;0.5
45788;PMS7003;31492;54.856;26.318;2023-04-03T21:31:00;1.6;1;0.5
45788;PMS7003;31492;54.856;26.318;2023-04-03T21:36:20;1.1;0.7;0.4
45788;PMS7003;31492;54.856;26.318;2023-04-03T21:41:24;1.5;0.7;0.3
45788;PMS7003;31492;54.856;26.318;2023-04-03T21:45:54;1.1;0.8;0.4
45788;PMS7003;31492;54.856;26.318;2023-04-03T21:51:10;1.3;0.9;0.4
45788;PMS7003;31492;54.856;26.318;2023-04-03T21:56:14;1.2;0.7;0.3
45788;PMS7003;31492;54.856;26.318;2023-04-03T22:01:07;0.6;0.4;0.2
45788;PMS7003;31492;54.856;26.318;2023-04-03T22:06:08;1.1;0.9;0.4
45788;PMS7003;31492;54.856;26.318;2023-04-03T22:10:58;1;0.7;0.5
45788;PMS7003;31492;54.856;26.318;2023-04-03T22:15:54;1.2;0.6;0.3
45788;PMS7003;31492;54.856;26.318;2023-04-03T22:20:54;1.2;0.7;0.3
45788;PMS7003;31492;54.856;26.318;2023-04-03T22:26:06;0.9;0.6;0.5
45788;PMS7003;31492;54.856;26.318;2023-04-03T22:30:54;1.1;0.7;0.4
45788;PMS7003;31492;54.856;26.318;2023-04-03T22:35:55;0.6;0.3;0.1
45788;PMS7003;31492;54.856;26.318;2023-04-03T22:41:20;1.4;0.7;0.5
45788;PMS7003;31492;54.856;26.318;2023-04-03T22:45:54;0.9;0.7;0.6
45788;PMS7003;31492;54.856;26.318;2023-04-03T22:51:14;0.8;0.6;0.3
45788;PMS7003;31492;54.856;26.318;2023-04-03T22:56:08;0.9;0.5;0.2
45788;PMS7003;31492;54.856;26.318;2023-04-03T23:00:54;0.7;0.6;0.4
45788;PMS7003;31492;54.856;26.318;2023-04-03T23:06:08;1.2;0.9;0.5
45788;PMS7003;31492;54.856;26.318;2023-04-03T23:10:54;1.4;0.6;0.6
45788;PMS7003;31492;54.856;26.318;2023-04-03T23:16:12;1.1;0.7;0.5
45788;PMS7003;31492;54.856;26.318;2023-04-03T23:21:08;0.7;0.4;0.2
45788;PMS7003;31492;54.856;26.318;2023-04-03T23:26:36;0.8;0.6;0.4
45788;PMS7003;31492;54.856;26.318;2023-04-03T23:30:55;1.3;0.7;0.5
45788;PMS7003;31492;54.856;26.318;2023-04-03T23:36:04;1.2;0.8;0.6
45788;PMS7003;31492;54.856;26.318;2023-04-03T23:41:20;0.9;0.7;0.4
45788;PMS7003;31492;54.856;26.318;2023-04-03T23:46:32;1.5;0.9;0.7
45788;PMS7003;31492;54.856;26.318;2023-04-03T23:51:00;1.6;1;0.8
45788;PMS7003;31492;54.856;26.318;2023-04-03T23:56:06;0.7;0.5;0.3
